createdAt,value
2023-03-14T00:01:24.358Z,62.08
2023-03-14T00:03:51.536Z,62.07
2023-03-14T00:06:21.351Z,56.04
2023-03-14T00:08:48.647Z,57.09
2023-03-14T00:11:18.824Z,59.88
2023-03-14T00:13:52.118Z,61.83
2023-03-14T00:16:20.522Z,62.78
2023-03-14T00:18:47.844Z,56.54
2023-03-14T00:21:14.942Z,57.03
2023-03-14T00:23:43.265Z,59.32
2023-03-14T00:26:13.596Z,61.68
2023-03-14T00:28:42.268Z,62.25
2023-03-14T00:31:12.536Z,57.01
2023-03-14T00:33:40.539Z,56.45
2023-03-14T00:36:10.745Z,59.11
2023-03-14T00:38:39.141Z,61.13
2023-03-14T00:41:13.056Z,62.51
2023-03-14T00:43:40.464Z,61.18
2023-03-14T00:46:07.998Z,55.15
2023-03-14T00:48:35.820Z,55.71
2023-03-14T00:51:04.580Z,58.49
2023-03-14T00:53:31.436Z,60.71
2023-03-14T00:55:58.342Z,62.06
2023-03-14T00:58:25.332Z,61.86
2023-03-14T01:00:52.257Z,55.47
2023-03-14T01:03:19.081Z,55.73
2023-03-14T01:05:46.073Z,58.39
2023-03-14T01:08:13.058Z,60.46
2023-03-14T01:10:41.496Z,62.33
2023-03-14T01:13:09.986Z,60.28
2023-03-14T01:15:38.583Z,55.86
2023-03-14T01:18:05.751Z,57.44
2023-03-14T01:20:32.680Z,59.78
2023-03-14T01:22:59.497Z,61.63
2023-03-14T01:25:26.568Z,62.57
2023-03-14T01:27:53.564Z,58.01
2023-03-14T01:30:20.587Z,56.66
2023-03-14T01:32:47.443Z,58.71
2023-03-14T01:35:14.451Z,60.37
2023-03-14T01:37:41.447Z,61.95
2023-03-14T01:40:12.960Z,62.67
2023-03-14T01:42:45.397Z,58.77
2023-03-14T01:45:49.796Z,55.04
2023-03-14T01:48:16.707Z,57.15
2023-03-14T01:50:43.757Z,58.57
2023-03-14T01:53:10.783Z,60.03
2023-03-14T01:55:38.650Z,60.72
2023-03-14T01:58:06.252Z,61.55
2023-03-14T02:00:33.199Z,61.91
2023-03-14T02:03:06.921Z,62.30
2023-03-14T02:05:39.051Z,61.78
2023-03-14T02:08:20.961Z,54.53
2023-03-14T02:10:52.797Z,54.70
2023-03-14T02:13:25.194Z,56.76
2023-03-14T02:17:07.291Z,58.46
2023-03-14T02:20:12.897Z,60.16
2023-03-14T02:22:45.376Z,61.12
2023-03-14T02:25:23.801Z,61.98
2023-03-14T02:27:51.263Z,62.61
2023-03-14T02:30:23.745Z,58.12
2023-03-14T02:32:59.508Z,53.97
2023-03-14T02:35:30.994Z,56.20
2023-03-14T02:38:16.112Z,58.54
2023-03-14T02:40:45.412Z,60.05
2023-03-14T02:43:12.534Z,61.37
2023-03-14T02:45:44.037Z,62.14
2023-03-14T02:48:22.288Z,62.08
2023-03-14T02:50:53.358Z,55.82
2023-03-14T02:53:27.587Z,55.05
2023-03-14T02:55:55.636Z,57.73
2023-03-14T02:58:25.322Z,59.82
2023-03-14T03:00:56.235Z,61.51
2023-03-14T03:03:23.725Z,62.01
2023-03-14T03:05:57.030Z,56.57
2023-03-14T03:08:27.154Z,54.49
2023-03-14T03:10:55.269Z,57.11
2023-03-14T03:13:22.230Z,59.86
2023-03-14T03:15:51.847Z,61.93
2023-03-14T03:18:19.214Z,62.12
2023-03-14T03:20:46.780Z,54.82
2023-03-14T03:23:14.033Z,55.20
2023-03-14T03:25:40.915Z,58.13
2023-03-14T03:28:09.128Z,60.67
2023-03-14T03:30:39.981Z,62.53
2023-03-14T03:33:07.253Z,57.20
2023-03-14T03:35:34.909Z,55.36
2023-03-14T03:38:02.155Z,58.21
2023-03-14T03:40:29.145Z,60.78
2023-03-14T03:42:56.009Z,62.30
2023-03-14T03:45:22.888Z,57.60
2023-03-14T03:47:52.727Z,53.34
2023-03-14T03:50:19.607Z,56.27
2023-03-14T03:52:46.639Z,59.26
2023-03-14T03:55:13.443Z,61.66
2023-03-14T03:57:40.441Z,61.41
2023-03-14T04:00:10.496Z,54.88
2023-03-14T04:02:46.510Z,56.12
2023-03-14T04:05:16.027Z,59.18
2023-03-14T04:07:49.245Z,61.35
2023-03-14T04:10:21.011Z,61.81
2023-03-14T04:13:02.391Z,56.10
2023-03-14T04:15:31.849Z,56.57
2023-03-14T04:18:02.139Z,59.20
2023-03-14T04:20:29.023Z,61.24
2023-03-14T04:22:55.890Z,62.28
2023-03-14T04:25:22.806Z,56.31
2023-03-14T04:27:54.059Z,56.12
2023-03-14T04:30:24.639Z,59.23
2023-03-14T04:32:54.571Z,61.66
2023-03-14T04:35:24.033Z,61.26
2023-03-14T04:37:54.388Z,56.27
2023-03-14T04:40:22.413Z,57.25
2023-03-14T04:42:51.452Z,59.66
2023-03-14T04:45:18.724Z,62.04
2023-03-14T04:47:46.209Z,62.18
2023-03-14T04:50:16.418Z,55.34
2023-03-14T04:52:43.636Z,55.58
2023-03-14T04:55:10.475Z,58.47
2023-03-14T04:57:37.314Z,60.65
2023-03-14T05:00:08.524Z,62.15
2023-03-14T05:02:58.016Z,60.18
2023-03-14T05:05:33.208Z,55.07
2023-03-14T05:08:16.107Z,56.97
2023-03-14T05:11:04.021Z,59.34
2023-03-14T05:13:50.608Z,61.14
2023-03-14T05:16:34.568Z,62.33
2023-03-14T05:19:15.033Z,60.76
2023-03-14T05:22:00.713Z,54.15
2023-03-14T05:24:37.385Z,55.76
2023-03-14T05:27:13.118Z,57.90
2023-03-14T05:30:07.030Z,60.01
2023-03-14T05:32:41.973Z,60.95
2023-03-14T05:35:12.054Z,61.73
2023-03-14T05:38:01.788Z,62.29
2023-03-14T05:40:31.587Z,61.19
2023-03-14T05:43:05.613Z,54.74
2023-03-14T05:45:58.751Z,55.36
2023-03-14T05:48:44.476Z,57.33
2023-03-14T05:51:35.060Z,57.42
2023-03-14T05:54:20.575Z,56.05
2023-03-14T05:56:56.599Z,54.51
2023-03-14T05:59:29.687Z,53.04
2023-03-14T06:02:10.729Z,52.01
2023-03-14T06:04:44.511Z,51.32
2023-03-14T06:07:11.392Z,50.49
2023-03-14T06:09:39.186Z,49.71
2023-03-14T06:12:08.344Z,49.14
2023-03-14T06:14:40.383Z,48.49
2023-03-14T06:17:07.483Z,48.35
2023-03-14T06:19:39.810Z,47.74
2023-03-14T06:22:06.716Z,46.81
2023-03-14T06:24:38.670Z,46.04
2023-03-14T06:27:05.611Z,45.20
2023-03-14T06:29:32.708Z,44.13
2023-03-14T06:32:03.218Z,43.49
2023-03-14T06:34:30.104Z,42.83
2023-03-14T06:36:57.296Z,41.72
2023-03-14T06:39:24.335Z,40.52
2023-03-14T06:41:59.858Z,39.64
2023-03-14T06:44:26.930Z,39.44
2023-03-14T06:46:53.885Z,41.11
2023-03-14T06:49:21.543Z,43.25
2023-03-14T06:51:52.254Z,45.48
2023-03-14T06:54:19.427Z,47.34
2023-03-14T06:56:47.555Z,48.92
2023-03-14T06:59:14.810Z,50.37
2023-03-14T07:01:42.316Z,51.43
2023-03-14T07:04:11.531Z,52.05
2023-03-14T07:06:45.242Z,52.01
2023-03-14T07:09:15.196Z,52.05
2023-03-14T07:11:47.702Z,52.42
2023-03-14T07:14:15.315Z,52.41
2023-03-14T07:16:42.304Z,52.36
2023-03-14T07:19:09.411Z,52.38
2023-03-14T07:21:37.074Z,51.22
2023-03-14T07:24:06.868Z,49.55
2023-03-14T07:26:33.891Z,47.85
2023-03-14T07:29:00.970Z,47.48
2023-03-14T07:31:27.870Z,46.98
2023-03-14T07:33:54.963Z,46.97
2023-03-14T07:36:22.749Z,47.35
2023-03-14T07:38:49.668Z,47.72
2023-03-14T07:41:30.219Z,48.10
2023-03-14T07:44:15.852Z,48.59
2023-03-14T07:46:42.782Z,48.64
2023-03-14T07:49:09.664Z,48.85
2023-03-14T07:51:36.535Z,48.23
2023-03-14T07:54:03.425Z,47.75
2023-03-14T07:56:30.279Z,46.97
2023-03-14T07:58:58.278Z,45.04
2023-03-14T08:01:25.184Z,43.23
2023-03-14T08:03:52.028Z,39.30
2023-03-14T08:06:18.984Z,35.41
2023-03-14T08:08:45.900Z,32.12
2023-03-14T08:11:12.816Z,30.59
2023-03-14T08:13:40.452Z,29.20
2023-03-14T08:16:07.763Z,28.10
2023-03-14T08:18:37.663Z,26.86
2023-03-14T08:21:04.611Z,26.74
2023-03-14T08:23:31.800Z,26.64
2023-03-14T08:25:59.060Z,26.19
2023-03-14T08:28:31.435Z,24.50
2023-03-14T08:30:58.805Z,24.20
2023-03-14T08:33:26.943Z,24.08
2023-03-14T08:35:55.314Z,24.26
2023-03-14T08:38:22.826Z,24.46
2023-03-14T08:40:51.237Z,25.20
2023-03-14T08:43:18.045Z,25.53
2023-03-14T08:45:44.884Z,25.12
2023-03-14T08:48:11.680Z,25.23
2023-03-14T08:50:38.617Z,24.83
2023-03-14T08:53:05.674Z,24.72
2023-03-14T08:55:33.212Z,24.83
2023-03-14T08:58:00.178Z,25.23
2023-03-14T09:00:27.208Z,25.22
2023-03-14T09:02:54.140Z,24.52
2023-03-14T09:05:21.249Z,23.81
2023-03-14T09:07:50.677Z,24.12
2023-03-14T09:10:17.958Z,23.73
2023-03-14T09:12:44.940Z,23.24
2023-03-14T09:15:12.088Z,23.06
2023-03-14T09:17:38.971Z,22.30
2023-03-14T09:20:10.160Z,22.15
2023-03-14T09:22:37.569Z,21.89
2023-03-14T09:25:05.905Z,21.18
2023-03-14T09:27:32.852Z,21.06
2023-03-14T09:29:59.735Z,21.42
2023-03-14T09:32:26.795Z,21.38
2023-03-14T09:34:53.799Z,21.02
2023-03-14T09:37:21.384Z,21.30
2023-03-14T09:39:48.366Z,21.89
2023-03-14T09:42:20.480Z,22.16
2023-03-14T09:44:54.522Z,21.59
2023-03-14T09:47:22.962Z,21.03
2023-03-14T09:49:49.995Z,21.20
2023-03-14T09:52:20.347Z,21.31
2023-03-14T09:54:58.492Z,22.10
2023-03-14T09:57:27.917Z,23.02
2023-03-14T10:00:00.064Z,23.71
2023-03-14T10:02:36.488Z,24.05
2023-03-14T10:05:09.642Z,23.19
2023-03-14T10:07:36.601Z,24.10
2023-03-14T10:10:16.973Z,25.53
2023-03-14T10:12:49.189Z,26.32
2023-03-14T10:15:26.382Z,26.47
2023-03-14T10:17:53.828Z,26.47
2023-03-14T10:20:28.689Z,27.25
2023-03-14T10:22:56.596Z,26.68
2023-03-14T10:25:35.985Z,25.70
2023-03-14T10:28:04.890Z,25.10
2023-03-14T10:30:39.946Z,24.89
2023-03-14T10:33:28.819Z,25.61
2023-03-14T10:36:01.578Z,27.25
2023-03-14T10:38:34.073Z,28.66
2023-03-14T10:41:02.293Z,29.28
2023-03-14T10:43:35.393Z,29.80
2023-03-14T10:46:09.659Z,30.13
2023-03-14T10:48:56.682Z,30.49
2023-03-14T10:51:29.609Z,31.35
2023-03-14T10:54:12.783Z,31.45
2023-03-14T10:56:39.708Z,30.37
2023-03-14T10:59:15.749Z,28.03
2023-03-14T11:01:45.964Z,27.25
2023-03-14T11:04:49.877Z,26.59
2023-03-14T11:07:30.469Z,26.03
2023-03-14T11:10:12.954Z,25.79
2023-03-14T11:13:09.055Z,26.14
2023-03-14T11:15:44.011Z,27.28
2023-03-14T11:18:29.277Z,29.17
2023-03-14T11:21:19.574Z,30.66
2023-03-14T11:24:01.457Z,32.45
2023-03-14T11:26:31.339Z,33.67
2023-03-14T11:29:24.262Z,35.24
2023-03-14T11:31:56.415Z,36.73
2023-03-14T11:34:48.241Z,38.30
2023-03-14T11:37:15.227Z,38.65
2023-03-14T11:39:49.431Z,39.77
2023-03-14T11:42:18.563Z,40.29
2023-03-14T11:44:49.077Z,40.67
2023-03-14T11:47:25.868Z,41.09
2023-03-14T11:50:27.001Z,40.77
2023-03-14T11:52:59.746Z,41.06
2023-03-14T11:55:31.791Z,41.27
2023-03-14T11:58:14.644Z,40.51
2023-03-14T12:00:43.321Z,40.18
2023-03-14T12:03:25.459Z,40.56
2023-03-14T12:06:11.900Z,40.53
2023-03-14T12:08:47.303Z,40.95
2023-03-14T12:11:14.608Z,40.81
2023-03-14T12:13:47.177Z,41.19
2023-03-14T12:16:26.027Z,41.44
2023-03-14T12:18:54.497Z,41.69
2023-03-14T12:21:41.888Z,41.19
2023-03-14T12:24:21.551Z,42.17
2023-03-14T12:26:57.970Z,42.65
2023-03-14T12:29:26.100Z,42.49
2023-03-14T12:32:01.932Z,42.84
2023-03-14T12:34:31.762Z,43.59
2023-03-14T12:37:26.924Z,44.33
2023-03-14T12:40:20.391Z,44.52
2023-03-14T12:43:00.492Z,45.24
2023-03-14T12:45:32.485Z,45.32
2023-03-14T12:48:26.238Z,46.20
2023-03-14T12:51:13.465Z,45.78
2023-03-14T12:54:14.764Z,45.59
2023-03-14T12:56:52.304Z,46.69
2023-03-14T12:59:41.927Z,46.82
2023-03-14T13:02:09.218Z,45.80
2023-03-14T13:04:45.901Z,46.48
2023-03-14T13:07:34.440Z,45.49
2023-03-14T13:13:02.743Z,45.63
2023-03-14T13:15:35.791Z,46.00
2023-03-14T13:18:11.354Z,45.87
2023-03-14T13:20:44.177Z,46.40
2023-03-14T13:23:25.805Z,46.82
2023-03-14T13:25:53.968Z,47.27
2023-03-14T13:28:21.640Z,46.91
2023-03-14T13:30:51.530Z,47.20
2023-03-14T13:33:21.450Z,47.92
2023-03-14T13:35:50.237Z,48.57
2023-03-14T13:38:26.031Z,49.24
2023-03-14T13:41:00.588Z,50.33
2023-03-14T13:43:33.591Z,51.96
2023-03-14T13:46:08.354Z,53.87
2023-03-14T13:48:44.389Z,55.34
2023-03-14T13:51:14.701Z,56.83
2023-03-14T13:53:51.779Z,58.11
2023-03-14T13:56:20.466Z,59.03
2023-03-14T13:58:47.745Z,60.03
2023-03-14T14:01:36.358Z,59.90
2023-03-14T14:04:16.312Z,60.78
2023-03-14T14:06:49.403Z,61.15
2023-03-14T14:09:22.028Z,61.82
2023-03-14T14:12:14.429Z,62.64
2023-03-14T14:14:51.355Z,60.99
2023-03-14T14:17:34.240Z,54.50
2023-03-14T14:20:05.840Z,56.52
2023-03-14T14:22:34.021Z,58.68
2023-03-14T14:25:03.071Z,60.46
2023-03-14T14:27:40.448Z,62.16
2023-03-14T14:30:19.614Z,62.90
2023-03-14T14:32:50.525Z,55.69
2023-03-14T14:35:35.893Z,56.28
2023-03-14T14:38:10.013Z,59.01
2023-03-14T14:40:46.769Z,61.25
2023-03-14T14:43:19.916Z,64.88
2023-03-14T14:45:51.154Z,58.73
2023-03-14T14:48:22.783Z,55.75
2023-03-14T14:50:58.456Z,57.92
2023-03-14T14:53:45.775Z,60.10
2023-03-14T14:56:23.662Z,63.80
2023-03-14T14:58:50.779Z,62.62
2023-03-14T15:01:24.284Z,56.94
2023-03-14T15:03:54.223Z,58.30
2023-03-14T15:06:21.799Z,61.14
2023-03-14T15:08:50.196Z,64.55
2023-03-14T15:11:20.455Z,59.70
2023-03-14T15:13:50.483Z,57.37
2023-03-14T15:16:21.776Z,60.01
2023-03-14T15:19:03.273Z,63.53
2023-03-14T15:21:34.819Z,59.16
2023-03-14T15:24:02.246Z,55.57
2023-03-14T15:26:30.504Z,58.71
2023-03-14T15:28:57.711Z,62.58
2023-03-14T15:31:24.814Z,63.08
2023-03-14T15:33:51.953Z,57.07
2023-03-14T15:36:28.772Z,57.29
2023-03-14T15:38:57.123Z,60.57
2023-03-14T15:41:24.534Z,64.77
2023-03-14T15:43:52.609Z,60.52
2023-03-14T15:46:20.137Z,56.18
2023-03-14T15:48:47.483Z,58.24
2023-03-14T15:51:15.209Z,61.76
2023-03-14T15:53:44.412Z,64.50
2023-03-14T15:56:17.507Z,58.65
2023-03-14T15:58:47.736Z,56.33
2023-03-14T16:01:17.323Z,59.11
2023-03-14T16:03:46.374Z,62.45
2023-03-14T16:06:14.790Z,64.18
2023-03-14T16:08:43.618Z,58.33
2023-03-14T16:11:12.695Z,57.17
2023-03-14T16:13:40.170Z,60.24
2023-03-14T16:16:08.866Z,64.01
2023-03-14T16:18:38.644Z,60.38
2023-03-14T16:21:18.295Z,56.14
2023-03-14T16:23:46.426Z,58.95
2023-03-14T16:26:19.281Z,61.82
2023-03-14T16:28:48.319Z,63.87
2023-03-14T16:31:18.711Z,57.32
2023-03-14T16:33:45.960Z,58.48
2023-03-14T16:36:14.726Z,62.43
2023-03-14T16:38:43.919Z,62.53
2023-03-14T16:41:20.114Z,57.56
2023-03-14T16:43:52.318Z,58.51
2023-03-14T16:46:22.778Z,61.51
2023-03-14T16:48:50.126Z,64.58
2023-03-14T16:51:17.848Z,58.37
2023-03-14T16:53:46.342Z,56.77
2023-03-14T16:56:14.650Z,59.76
2023-03-14T16:58:42.696Z,63.67
2023-03-14T17:01:12.721Z,59.64
2023-03-14T17:03:45.724Z,55.52
2023-03-14T17:06:15.607Z,58.31
2023-03-14T17:08:43.398Z,61.68
2023-03-14T17:11:11.359Z,62.84
2023-03-14T17:13:39.354Z,57.21
2023-03-14T17:16:07.189Z,57.09
2023-03-14T17:18:36.848Z,60.13
2023-03-14T17:21:05.046Z,63.27
2023-03-14T17:23:33.525Z,60.71
2023-03-14T17:26:00.978Z,55.05
2023-03-14T17:28:28.376Z,57.35
2023-03-14T17:31:09.783Z,60.46
2023-03-14T17:33:37.558Z,63.07
2023-03-14T17:36:08.296Z,58.79
2023-03-14T17:38:36.962Z,55.30
2023-03-14T17:41:08.057Z,57.47
2023-03-14T17:43:35.466Z,60.94
2023-03-14T17:46:14.643Z,63.99
2023-03-14T17:48:43.211Z,57.84
2023-03-14T17:51:11.470Z,55.05
2023-03-14T17:53:39.365Z,57.77
2023-03-14T17:56:07.545Z,61.01
2023-03-14T17:58:37.786Z,63.55
2023-03-14T18:01:19.747Z,58.93
2023-03-14T18:03:48.365Z,53.54
2023-03-14T18:06:17.970Z,55.92
2023-03-14T18:08:46.991Z,59.22
2023-03-14T18:11:14.426Z,61.64
2023-03-14T18:13:42.403Z,63.05
2023-03-14T18:16:15.516Z,56.61
2023-03-14T18:18:49.525Z,56.76
2023-03-14T18:21:19.958Z,60.00
2023-03-14T18:23:48.935Z,62.07
2023-03-14T18:26:16.129Z,61.56
2023-03-14T18:28:43.235Z,54.56
2023-03-14T18:31:13.284Z,55.48
2023-03-14T18:33:45.608Z,58.51
2023-03-14T18:36:13.293Z,61.07
2023-03-14T18:38:43.874Z,62.86
2023-03-14T18:41:14.161Z,57.21
2023-03-14T18:43:42.300Z,55.04
2023-03-14T18:46:12.895Z,57.67
2023-03-14T18:48:42.757Z,60.19
2023-03-14T18:51:15.593Z,62.56
2023-03-14T18:53:43.756Z,60.49
2023-03-14T18:56:14.089Z,54.28
2023-03-14T18:58:41.878Z,56.15
2023-03-14T19:01:10.632Z,59.05
2023-03-14T19:03:38.104Z,61.24
2023-03-14T19:06:07.953Z,63.17
2023-03-14T19:08:36.801Z,56.51
2023-03-14T19:11:06.178Z,55.46
2023-03-14T19:13:35.341Z,58.43
2023-03-14T19:16:04.372Z,60.87
2023-03-14T19:18:33.420Z,62.99
2023-03-14T19:21:09.167Z,56.78
2023-03-14T19:23:38.328Z,57.06
2023-03-14T19:26:07.113Z,59.91
2023-03-14T19:28:34.248Z,62.73
2023-03-14T19:31:05.498Z,60.68
2023-03-14T19:33:33.237Z,55.01
2023-03-14T19:36:02.785Z,57.07
2023-03-14T19:38:29.987Z,60.35
2023-03-14T19:40:59.028Z,63.54
2023-03-14T19:43:27.014Z,58.27
2023-03-14T19:45:56.062Z,56.39
2023-03-14T19:48:30.720Z,59.57
2023-03-14T19:51:00.300Z,62.99
2023-03-14T19:53:29.229Z,61.69
2023-03-14T19:55:56.366Z,56.30
2023-03-14T19:58:25.051Z,58.16
2023-03-14T20:00:52.365Z,61.53
2023-03-14T20:03:19.649Z,63.01
2023-03-14T20:05:46.762Z,57.31
2023-03-14T20:08:13.984Z,58.24
2023-03-14T20:10:41.449Z,61.09
2023-03-14T20:13:20.845Z,63.89
2023-03-14T20:15:48.832Z,58.20
2023-03-14T20:18:15.814Z,56.48
2023-03-14T20:20:42.912Z,59.73
2023-03-14T20:23:10.631Z,63.00
2023-03-14T20:25:38.082Z,62.02
2023-03-14T20:28:05.569Z,56.93
2023-03-14T20:30:33.390Z,58.25
2023-03-14T20:33:04.890Z,61.67
2023-03-14T20:35:32.598Z,63.79
2023-03-14T20:37:59.713Z,58.60
2023-03-14T20:40:28.995Z,56.88
2023-03-14T20:42:56.858Z,59.93
2023-03-14T20:45:23.842Z,63.18
2023-03-14T20:47:51.212Z,60.41
2023-03-14T20:50:18.457Z,56.16
2023-03-14T20:52:45.560Z,58.60
2023-03-14T20:55:12.991Z,62.15
2023-03-14T20:57:39.867Z,62.73
2023-03-14T21:00:08.426Z,57.85
2023-03-14T21:05:20.593Z,62.37
2023-03-14T21:07:48.082Z,62.87
2023-03-14T21:10:15.360Z,57.56
2023-03-14T21:12:42.494Z,58.20
2023-03-14T21:15:10.403Z,61.37
2023-03-14T21:17:39.731Z,63.65
2023-03-14T21:20:11.597Z,58.95
2023-03-14T21:22:38.925Z,56.04
2023-03-14T21:25:09.425Z,58.98
2023-03-14T21:27:39.964Z,62.78
2023-03-14T21:30:08.556Z,60.58
2023-03-14T21:32:35.524Z,57.08
2023-03-14T21:35:02.564Z,59.43
2023-03-14T21:37:29.583Z,63.12
2023-03-14T21:39:56.813Z,62.27
2023-03-14T21:42:24.677Z,57.72
2023-03-14T21:44:52.439Z,59.27
2023-03-14T21:47:23.832Z,62.62
2023-03-14T21:49:52.127Z,61.92
2023-03-14T21:52:19.097Z,57.00
2023-03-14T21:54:46.050Z,58.89
2023-03-14T21:57:14.818Z,62.50
2023-03-14T21:59:44.253Z,62.15
2023-03-14T22:02:15.272Z,57.26
2023-03-14T22:04:45.452Z,58.61
2023-03-14T22:07:17.334Z,62.29
2023-03-14T22:09:46.062Z,62.92
2023-03-14T22:12:19.940Z,57.54
2023-03-14T22:14:48.360Z,58.34
2023-03-14T22:17:16.370Z,62.24
2023-03-14T22:19:43.687Z,62.84
2023-03-14T22:22:10.733Z,58.17
2023-03-14T22:24:37.791Z,57.94
2023-03-14T22:27:05.082Z,61.51
2023-03-14T22:29:37.906Z,63.47
2023-03-14T22:32:06.729Z,59.48
2023-03-14T22:34:36.724Z,56.35
2023-03-14T22:37:06.268Z,59.21
2023-03-14T22:39:33.966Z,62.97
2023-03-14T22:42:01.387Z,62.71
2023-03-14T22:44:33.217Z,58.05
2023-03-14T22:47:02.543Z,59.06
2023-03-14T22:49:33.196Z,62.37
2023-03-14T22:52:00.143Z,64.68
2023-03-14T22:54:28.054Z,59.87
2023-03-14T22:56:55.017Z,57.95
2023-03-14T22:59:21.982Z,60.48
2023-03-14T23:01:48.939Z,63.53
2023-03-14T23:04:16.080Z,59.13
2023-03-14T23:06:43.182Z,56.07
2023-03-14T23:09:12.229Z,59.35
2023-03-14T23:11:40.296Z,62.83
2023-03-14T23:14:07.779Z,63.71
2023-03-14T23:16:40.622Z,57.58
2023-03-14T23:19:10.017Z,57.81
2023-03-14T23:21:37.367Z,61.11
2023-03-14T23:24:06.295Z,64.00
2023-03-14T23:26:35.645Z,57.71
2023-03-14T23:29:07.402Z,57.38
2023-03-14T23:31:34.576Z,60.65
2023-03-14T23:34:01.541Z,64.62
2023-03-14T23:36:28.388Z,59.01
2023-03-14T23:38:55.261Z,56.13
2023-03-14T23:41:22.205Z,58.81
2023-03-14T23:43:49.418Z,61.60
2023-03-14T23:46:17.394Z,63.94
2023-03-14T23:48:47.330Z,57.74
2023-03-14T23:51:15.519Z,55.01
2023-03-14T23:53:43.107Z,58.35
2023-03-14T23:56:12.808Z,61.33
2023-03-14T23:58:41.051Z,64.17
